sensor_id;sensor_type;location;lat;lon;timestamp;P1;durP1;ratioP1;P2;durP2;ratioP2
14369;SDS011;7268;50.792;0.252;2022-09-09T00:00:22;19.30;;;2.42;;
14369;SDS011;7268;50.792;0.252;2022-09-09T00:02:53;26.15;;;1.98;;
14369;SDS011;7268;50.792;0.252;2022-09-09T00:07:53;26.83;;;2.55;;
14369;SDS011;7268;50.792;0.252;2022-09-09T00:12:57;22.25;;;2.22;;
14369;SDS011;7268;50.792;0.252;2022-09-09T00:15:33;15.63;;;2.25;;
14369;SDS011;7268;50.792;0.252;2022-09-09T00:20:39;22.25;;;1.98;;
14369;SDS011;7268;50.792;0.252;2022-09-09T00:23:27;26.25;;;4.22;;
14369;SDS011;7268;50.792;0.252;2022-09-09T00:28:43;29.83;;;2.05;;
14369;SDS011;7268;50.792;0.252;2022-09-09T00:31:14;22.25;;;2.00;;
14369;SDS011;7268;50.792;0.252;2022-09-09T00:33:42;23.75;;;2.47;;
14369;SDS011;7268;50.792;0.252;2022-09-09T00:36:14;16.30;;;2.08;;
14369;SDS011;7268;50.792;0.252;2022-09-09T00:38:52;14.88;;;1.75;;
14369;SDS011;7268;50.792;0.252;2022-09-09T00:41:26;20.23;;;1.80;;
14369;SDS011;7268;50.792;0.252;2022-09-09T00:43:57;22.77;;;2.03;;
14369;SDS011;7268;50.792;0.252;2022-09-09T00:54:12;9.90;;;1.00;;
14369;SDS011;7268;50.792;0.252;2022-09-09T00:56:56;9.90;;;0.80;;
14369;SDS011;7268;50.792;0.252;2022-09-09T00:59:48;15.02;;;1.73;;
14369;SDS011;7268;50.792;0.252;2022-09-09T01:04:48;11.48;;;1.05;;
14369;SDS011;7268;50.792;0.252;2022-09-09T01:07:16;12.52;;;0.70;;
14369;SDS011;7268;50.792;0.252;2022-09-09T01:09:52;14.45;;;1.20;;
14369;SDS011;7268;50.792;0.252;2022-09-09T01:12:25;17.40;;;1.73;;
14369;SDS011;7268;50.792;0.252;2022-09-09T01:28:22;14.70;;;1.40;;
14369;SDS011;7268;50.792;0.252;2022-09-09T01:30:52;19.85;;;1.98;;
14369;SDS011;7268;50.792;0.252;2022-09-09T01:33:20;10.50;;;1.73;;
14369;SDS011;7268;50.792;0.252;2022-09-09T01:35:51;23.60;;;1.65;;
14369;SDS011;7268;50.792;0.252;2022-09-09T01:38:22;12.50;;;1.30;;
14369;SDS011;7268;50.792;0.252;2022-09-09T01:40:50;21.52;;;3.08;;
14369;SDS011;7268;50.792;0.252;2022-09-09T01:43:19;26.05;;;1.80;;
14369;SDS011;7268;50.792;0.252;2022-09-09T01:45:47;18.30;;;1.20;;
14369;SDS011;7268;50.792;0.252;2022-09-09T01:48:15;9.20;;;1.48;;
14369;SDS011;7268;50.792;0.252;2022-09-09T01:50:43;7.68;;;1.10;;
14369;SDS011;7268;50.792;0.252;2022-09-09T01:53:10;11.60;;;0.90;;
14369;SDS011;7268;50.792;0.252;2022-09-09T01:55:39;8.93;;;1.13;;
14369;SDS011;7268;50.792;0.252;2022-09-09T01:58:30;10.40;;;1.30;;
14369;SDS011;7268;50.792;0.252;2022-09-09T02:01:01;10.63;;;0.68;;
14369;SDS011;7268;50.792;0.252;2022-09-09T02:03:29;9.93;;;1.27;;
14369;SDS011;7268;50.792;0.252;2022-09-09T02:06:03;8.75;;;0.70;;
14369;SDS011;7268;50.792;0.252;2022-09-09T02:08:40;6.47;;;1.13;;
14369;SDS011;7268;50.792;0.252;2022-09-09T02:11:16;6.80;;;0.80;;
14369;SDS011;7268;50.792;0.252;2022-09-09T02:13:44;5.95;;;0.80;;
14369;SDS011;7268;50.792;0.252;2022-09-09T02:18:40;12.35;;;1.00;;
14369;SDS011;7268;50.792;0.252;2022-09-09T02:21:11;9.40;;;1.00;;
14369;SDS011;7268;50.792;0.252;2022-09-09T02:23:40;9.95;;;0.90;;
14369;SDS011;7268;50.792;0.252;2022-09-09T02:26:09;3.60;;;0.70;;
14369;SDS011;7268;50.792;0.252;2022-09-09T02:28:37;2.78;;;0.45;;
14369;SDS011;7268;50.792;0.252;2022-09-09T02:31:05;8.23;;;0.95;;
14369;SDS011;7268;50.792;0.252;2022-09-09T02:33:34;9.55;;;1.20;;
14369;SDS011;7268;50.792;0.252;2022-09-09T02:36:02;11.60;;;1.08;;
14369;SDS011;7268;50.792;0.252;2022-09-09T02:38:35;5.97;;;0.98;;
14369;SDS011;7268;50.792;0.252;2022-09-09T02:41:03;8.50;;;1.00;;
14369;SDS011;7268;50.792;0.252;2022-09-09T02:43:31;6.13;;;0.93;;
14369;SDS011;7268;50.792;0.252;2022-09-09T02:53:24;10.57;;;1.30;;
14369;SDS011;7268;50.792;0.252;2022-09-09T02:58:23;5.13;;;1.13;;
14369;SDS011;7268;50.792;0.252;2022-09-09T03:00:51;9.13;;;1.52;;
14369;SDS011;7268;50.792;0.252;2022-09-09T03:03:19;8.18;;;1.67;;
14369;SDS011;7268;50.792;0.252;2022-09-09T03:05:48;8.23;;;1.85;;
14369;SDS011;7268;50.792;0.252;2022-09-09T03:08:15;11.20;;;1.65;;
14369;SDS011;7268;50.792;0.252;2022-09-09T03:10:43;7.93;;;1.35;;
14369;SDS011;7268;50.792;0.252;2022-09-09T03:13:11;10.63;;;1.50;;
14369;SDS011;7268;50.792;0.252;2022-09-09T03:15:41;14.85;;;1.45;;
14369;SDS011;7268;50.792;0.252;2022-09-09T03:18:08;12.20;;;1.77;;
14369;SDS011;7268;50.792;0.252;2022-09-09T03:20:35;12.55;;;1.55;;
14369;SDS011;7268;50.792;0.252;2022-09-09T03:23:03;9.20;;;1.40;;
14369;SDS011;7268;50.792;0.252;2022-09-09T03:25:30;13.43;;;1.10;;
14369;SDS011;7268;50.792;0.252;2022-09-09T03:27:58;7.72;;;1.00;;
14369;SDS011;7268;50.792;0.252;2022-09-09T03:30:25;14.20;;;1.13;;
14369;SDS011;7268;50.792;0.252;2022-09-09T03:32:53;6.68;;;1.30;;
14369;SDS011;7268;50.792;0.252;2022-09-09T03:35:21;5.82;;;1.10;;
14369;SDS011;7268;50.792;0.252;2022-09-09T03:37:48;7.18;;;1.17;;
14369;SDS011;7268;50.792;0.252;2022-09-09T03:40:15;7.97;;;1.25;;
14369;SDS011;7268;50.792;0.252;2022-09-09T03:42:46;5.93;;;0.90;;
14369;SDS011;7268;50.792;0.252;2022-09-09T03:45:14;5.82;;;1.05;;
14369;SDS011;7268;50.792;0.252;2022-09-09T03:47:41;9.38;;;1.27;;
14369;SDS011;7268;50.792;0.252;2022-09-09T03:50:09;3.08;;;0.82;;
14369;SDS011;7268;50.792;0.252;2022-09-09T03:52:37;3.33;;;0.90;;
14369;SDS011;7268;50.792;0.252;2022-09-09T03:55:05;6.90;;;1.02;;
14369;SDS011;7268;50.792;0.252;2022-09-09T03:57:32;2.38;;;1.05;;
14369;SDS011;7268;50.792;0.252;2022-09-09T04:00:04;9.85;;;1.20;;
14369;SDS011;7268;50.792;0.252;2022-09-09T04:02:32;6.57;;;1.40;;
14369;SDS011;7268;50.792;0.252;2022-09-09T04:05:00;7.55;;;1.02;;
14369;SDS011;7268;50.792;0.252;2022-09-09T04:07:27;5.30;;;1.17;;
14369;SDS011;7268;50.792;0.252;2022-09-09T04:09:54;7.65;;;1.10;;
14369;SDS011;7268;50.792;0.252;2022-09-09T04:12:22;6.82;;;1.00;;
14369;SDS011;7268;50.792;0.252;2022-09-09T04:14:49;5.75;;;1.00;;
14369;SDS011;7268;50.792;0.252;2022-09-09T04:17:17;6.13;;;1.17;;
14369;SDS011;7268;50.792;0.252;2022-09-09T04:19:44;3.55;;;0.80;;
14369;SDS011;7268;50.792;0.252;2022-09-09T04:22:12;4.88;;;0.98;;
14369;SDS011;7268;50.792;0.252;2022-09-09T04:24:40;6.13;;;1.08;;
14369;SDS011;7268;50.792;0.252;2022-09-09T04:27:13;5.78;;;1.00;;
14369;SDS011;7268;50.792;0.252;2022-09-09T04:29:41;12.15;;;0.90;;
14369;SDS011;7268;50.792;0.252;2022-09-09T04:32:08;5.65;;;0.93;;
14369;SDS011;7268;50.792;0.252;2022-09-09T04:34:35;6.53;;;1.05;;
14369;SDS011;7268;50.792;0.252;2022-09-09T04:37:02;3.70;;;1.10;;
14369;SDS011;7268;50.792;0.252;2022-09-09T04:39:29;5.57;;;0.98;;
14369;SDS011;7268;50.792;0.252;2022-09-09T04:41:57;7.70;;;1.00;;
14369;SDS011;7268;50.792;0.252;2022-09-09T04:44:24;6.65;;;1.00;;
14369;SDS011;7268;50.792;0.252;2022-09-09T04:46:51;9.90;;;1.10;;
14369;SDS011;7268;50.792;0.252;2022-09-09T04:49:18;6.90;;;1.08;;
14369;SDS011;7268;50.792;0.252;2022-09-09T04:51:46;9.75;;;1.02;;
14369;SDS011;7268;50.792;0.252;2022-09-09T04:54:15;4.57;;;0.90;;
14369;SDS011;7268;50.792;0.252;2022-09-09T04:56:42;5.63;;;0.90;;
14369;SDS011;7268;50.792;0.252;2022-09-09T04:59:10;8.60;;;1.10;;
14369;SDS011;7268;50.792;0.252;2022-09-09T05:01:37;7.40;;;0.82;;
14369;SDS011;7268;50.792;0.252;2022-09-09T05:04:04;5.32;;;0.85;;
14369;SDS011;7268;50.792;0.252;2022-09-09T05:06:32;15.25;;;1.75;;
14369;SDS011;7268;50.792;0.252;2022-09-09T05:08:59;2.75;;;1.33;;
14369;SDS011;7268;50.792;0.252;2022-09-09T05:11:28;4.90;;;1.00;;
14369;SDS011;7268;50.792;0.252;2022-09-09T05:13:56;7.78;;;1.65;;
14369;SDS011;7268;50.792;0.252;2022-09-09T05:16:23;13.32;;;1.60;;
14369;SDS011;7268;50.792;0.252;2022-09-09T05:18:51;3.97;;;1.10;;
14369;SDS011;7268;50.792;0.252;2022-09-09T05:21:19;6.05;;;1.48;;
14369;SDS011;7268;50.792;0.252;2022-09-09T05:23:47;8.45;;;1.98;;
14369;SDS011;7268;50.792;0.252;2022-09-09T05:26:15;6.38;;;1.55;;
14369;SDS011;7268;50.792;0.252;2022-09-09T05:28:43;8.40;;;1.02;;
14369;SDS011;7268;50.792;0.252;2022-09-09T05:31:11;5.95;;;1.50;;
14369;SDS011;7268;50.792;0.252;2022-09-09T05:33:39;10.52;;;1.30;;
14369;SDS011;7268;50.792;0.252;2022-09-09T05:36:08;6.53;;;1.88;;
14369;SDS011;7268;50.792;0.252;2022-09-09T05:38:37;6.15;;;1.17;;
14369;SDS011;7268;50.792;0.252;2022-09-09T05:41:04;7.63;;;1.40;;
14369;SDS011;7268;50.792;0.252;2022-09-09T05:43:32;3.70;;;1.17;;
14369;SDS011;7268;50.792;0.252;2022-09-09T05:46:06;6.47;;;1.40;;
14369;SDS011;7268;50.792;0.252;2022-09-09T05:48:35;7.82;;;1.25;;
14369;SDS011;7268;50.792;0.252;2022-09-09T05:51:04;6.82;;;1.42;;
14369;SDS011;7268;50.792;0.252;2022-09-09T05:53:32;4.78;;;1.30;;
14369;SDS011;7268;50.792;0.252;2022-09-09T05:56:04;8.02;;;1.67;;
14369;SDS011;7268;50.792;0.252;2022-09-09T05:58:32;7.25;;;1.60;;
14369;SDS011;7268;50.792;0.252;2022-09-09T06:03:29;9.82;;;1.80;;
14369;SDS011;7268;50.792;0.252;2022-09-09T06:05:58;6.28;;;1.80;;
14369;SDS011;7268;50.792;0.252;2022-09-09T06:08:26;7.47;;;2.08;;
14369;SDS011;7268;50.792;0.252;2022-09-09T06:10:53;3.50;;;1.50;;
14369;SDS011;7268;50.792;0.252;2022-09-09T06:13:20;8.18;;;1.65;;
14369;SDS011;7268;50.792;0.252;2022-09-09T06:15:51;6.15;;;1.50;;
14369;SDS011;7268;50.792;0.252;2022-09-09T06:18:19;6.32;;;1.50;;
14369;SDS011;7268;50.792;0.252;2022-09-09T06:20:53;6.18;;;1.70;;
14369;SDS011;7268;50.792;0.252;2022-09-09T06:23:20;6.90;;;1.50;;
14369;SDS011;7268;50.792;0.252;2022-09-09T06:25:48;9.68;;;1.42;;
14369;SDS011;7268;50.792;0.252;2022-09-09T06:28:15;25.70;;;13.02;;
14369;SDS011;7268;50.792;0.252;2022-09-09T06:30:43;10.88;;;2.25;;
14369;SDS011;7268;50.792;0.252;2022-09-09T06:33:10;5.82;;;1.85;;
14369;SDS011;7268;50.792;0.252;2022-09-09T06:35:38;7.75;;;1.52;;
14369;SDS011;7268;50.792;0.252;2022-09-09T06:38:05;4.70;;;1.50;;
14369;SDS011;7268;50.792;0.252;2022-09-09T06:40:32;5.38;;;1.52;;
14369;SDS011;7268;50.792;0.252;2022-09-09T06:42:59;5.20;;;1.40;;
14369;SDS011;7268;50.792;0.252;2022-09-09T06:45:28;6.40;;;1.13;;
14369;SDS011;7268;50.792;0.252;2022-09-09T06:47:55;6.22;;;1.45;;
14369;SDS011;7268;50.792;0.252;2022-09-09T06:50:22;4.85;;;1.35;;
14369;SDS011;7268;50.792;0.252;2022-09-09T06:52:50;6.70;;;1.40;;
14369;SDS011;7268;50.792;0.252;2022-09-09T06:55:17;8.55;;;1.33;;
14369;SDS011;7268;50.792;0.252;2022-09-09T06:57:45;10.05;;;1.85;;
14369;SDS011;7268;50.792;0.252;2022-09-09T07:00:12;4.35;;;1.25;;
14369;SDS011;7268;50.792;0.252;2022-09-09T07:02:40;4.82;;;1.00;;
14369;SDS011;7268;50.792;0.252;2022-09-09T07:05:08;4.88;;;1.55;;
14369;SDS011;7268;50.792;0.252;2022-09-09T07:07:35;7.00;;;1.38;;
14369;SDS011;7268;50.792;0.252;2022-09-09T07:10:03;4.78;;;1.35;;
14369;SDS011;7268;50.792;0.252;2022-09-09T07:12:30;9.15;;;1.48;;
14369;SDS011;7268;50.792;0.252;2022-09-09T07:14:57;9.63;;;1.85;;
14369;SDS011;7268;50.792;0.252;2022-09-09T07:17:25;5.80;;;1.30;;
14369;SDS011;7268;50.792;0.252;2022-09-09T07:19:52;9.13;;;2.00;;
14369;SDS011;7268;50.792;0.252;2022-09-09T07:22:19;6.32;;;1.63;;
14369;SDS011;7268;50.792;0.252;2022-09-09T07:24:46;8.20;;;1.75;;
14369;SDS011;7268;50.792;0.252;2022-09-09T07:27:15;6.35;;;2.05;;
14369;SDS011;7268;50.792;0.252;2022-09-09T07:29:43;11.13;;;1.92;;
14369;SDS011;7268;50.792;0.252;2022-09-09T07:32:11;7.82;;;1.65;;
14369;SDS011;7268;50.792;0.252;2022-09-09T07:34:38;9.65;;;2.00;;
14369;SDS011;7268;50.792;0.252;2022-09-09T07:37:06;6.90;;;1.30;;
14369;SDS011;7268;50.792;0.252;2022-09-09T07:39:34;5.60;;;1.23;;
14369;SDS011;7268;50.792;0.252;2022-09-09T07:42:01;6.93;;;1.30;;
14369;SDS011;7268;50.792;0.252;2022-09-09T07:44:28;5.22;;;1.55;;
14369;SDS011;7268;50.792;0.252;2022-09-09T07:46:56;7.72;;;1.88;;
14369;SDS011;7268;50.792;0.252;2022-09-09T07:49:23;7.13;;;1.40;;
14369;SDS011;7268;50.792;0.252;2022-09-09T07:51:57;8.40;;;1.40;;
14369;SDS011;7268;50.792;0.252;2022-09-09T07:54:24;4.78;;;1.25;;
14369;SDS011;7268;50.792;0.252;2022-09-09T07:56:52;4.43;;;1.38;;
14369;SDS011;7268;50.792;0.252;2022-09-09T07:59:19;5.63;;;1.15;;
14369;SDS011;7268;50.792;0.252;2022-09-09T08:01:48;5.93;;;1.10;;
14369;SDS011;7268;50.792;0.252;2022-09-09T08:06:48;3.63;;;1.10;;
14369;SDS011;7268;50.792;0.252;2022-09-09T08:09:15;4.50;;;1.08;;
14369;SDS011;7268;50.792;0.252;2022-09-09T08:11:43;5.35;;;1.20;;
14369;SDS011;7268;50.792;0.252;2022-09-09T08:14:11;3.13;;;0.90;;
14369;SDS011;7268;50.792;0.252;2022-09-09T08:16:40;4.07;;;0.85;;
14369;SDS011;7268;50.792;0.252;2022-09-09T08:19:08;4.80;;;1.00;;
14369;SDS011;7268;50.792;0.252;2022-09-09T08:21:36;3.03;;;0.80;;
14369;SDS011;7268;50.792;0.252;2022-09-09T08:24:05;2.22;;;0.68;;
14369;SDS011;7268;50.792;0.252;2022-09-09T08:26:37;3.60;;;0.82;;
14369;SDS011;7268;50.792;0.252;2022-09-09T08:29:05;2.30;;;0.93;;
14369;SDS011;7268;50.792;0.252;2022-09-09T08:31:34;2.40;;;1.00;;
14369;SDS011;7268;50.792;0.252;2022-09-09T08:34:02;4.82;;;0.90;;
14369;SDS011;7268;50.792;0.252;2022-09-09T08:36:33;4.88;;;0.90;;
14369;SDS011;7268;50.792;0.252;2022-09-09T08:39:02;4.32;;;1.00;;
14369;SDS011;7268;50.792;0.252;2022-09-09T08:41:36;3.40;;;1.00;;
14369;SDS011;7268;50.792;0.252;2022-09-09T08:49:33;1.88;;;1.00;;
14369;SDS011;7268;50.792;0.252;2022-09-09T08:54:33;3.90;;;1.10;;
14369;SDS011;7268;50.792;0.252;2022-09-09T08:57:25;3.05;;;1.27;;
14369;SDS011;7268;50.792;0.252;2022-09-09T08:59:54;4.43;;;1.27;;
14369;SDS011;7268;50.792;0.252;2022-09-09T09:02:25;2.85;;;1.25;;
14369;SDS011;7268;50.792;0.252;2022-09-09T09:07:53;4.22;;;1.60;;
14369;SDS011;7268;50.792;0.252;2022-09-09T09:13:09;5.22;;;1.55;;
14369;SDS011;7268;50.792;0.252;2022-09-09T09:15:39;7.82;;;2.00;;
14369;SDS011;7268;50.792;0.252;2022-09-09T09:18:08;6.00;;;1.75;;
14369;SDS011;7268;50.792;0.252;2022-09-09T09:23:10;3.63;;;1.38;;
14369;SDS011;7268;50.792;0.252;2022-09-09T09:25:41;8.55;;;1.95;;
14369;SDS011;7268;50.792;0.252;2022-09-09T09:28:13;6.97;;;1.23;;
14369;SDS011;7268;50.792;0.252;2022-09-09T09:30:52;6.43;;;2.13;;
14369;SDS011;7268;50.792;0.252;2022-09-09T09:35:48;5.25;;;1.40;;
14369;SDS011;7268;50.792;0.252;2022-09-09T09:38:21;8.05;;;1.17;;
14369;SDS011;7268;50.792;0.252;2022-09-09T09:41:09;5.40;;;1.60;;
14369;SDS011;7268;50.792;0.252;2022-09-09T09:43:37;5.30;;;1.35;;
14369;SDS011;7268;50.792;0.252;2022-09-09T09:46:18;6.25;;;1.30;;
14369;SDS011;7268;50.792;0.252;2022-09-09T09:48:56;3.63;;;1.15;;
14369;SDS011;7268;50.792;0.252;2022-09-09T09:51:23;3.55;;;0.82;;
14369;SDS011;7268;50.792;0.252;2022-09-09T09:53:51;5.20;;;1.20;;
14369;SDS011;7268;50.792;0.252;2022-09-09T09:56:26;7.65;;;1.40;;
14369;SDS011;7268;50.792;0.252;2022-09-09T09:58:55;7.40;;;1.00;;
14369;SDS011;7268;50.792;0.252;2022-09-09T10:01:26;3.92;;;0.95;;
14369;SDS011;7268;50.792;0.252;2022-09-09T10:03:54;5.68;;;1.10;;
14369;SDS011;7268;50.792;0.252;2022-09-09T10:06:31;4.93;;;1.20;;
14369;SDS011;7268;50.792;0.252;2022-09-09T10:08:59;5.18;;;1.10;;
14369;SDS011;7268;50.792;0.252;2022-09-09T10:11:33;5.68;;;1.05;;
14369;SDS011;7268;50.792;0.252;2022-09-09T10:14:16;8.85;;;1.15;;
14369;SDS011;7268;50.792;0.252;2022-09-09T10:16:56;5.15;;;1.00;;
14369;SDS011;7268;50.792;0.252;2022-09-09T10:27:03;3.90;;;0.80;;
14369;SDS011;7268;50.792;0.252;2022-09-09T10:37:07;3.55;;;0.88;;
14369;SDS011;7268;50.792;0.252;2022-09-09T10:39:38;2.30;;;0.80;;
14369;SDS011;7268;50.792;0.252;2022-09-09T10:42:14;3.25;;;0.60;;
14369;SDS011;7268;50.792;0.252;2022-09-09T10:52:47;2.03;;;0.60;;
14369;SDS011;7268;50.792;0.252;2022-09-09T10:55:20;7.00;;;0.80;;
14369;SDS011;7268;50.792;0.252;2022-09-09T10:57:55;6.88;;;0.93;;
14369;SDS011;7268;50.792;0.252;2022-09-09T11:00:24;4.72;;;0.70;;
14369;SDS011;7268;50.792;0.252;2022-09-09T11:02:55;3.63;;;0.80;;
14369;SDS011;7268;50.792;0.252;2022-09-09T11:13:19;7.30;;;0.75;;
14369;SDS011;7268;50.792;0.252;2022-09-09T11:18:53;1.17;;;0.60;;
14369;SDS011;7268;50.792;0.252;2022-09-09T11:21:25;1.67;;;0.50;;
14369;SDS011;7268;50.792;0.252;2022-09-09T11:23:59;3.40;;;0.40;;
14369;SDS011;7268;50.792;0.252;2022-09-09T11:26:41;7.93;;;0.50;;
14369;SDS011;7268;50.792;0.252;2022-09-09T11:32:14;4.72;;;0.63;;
14369;SDS011;7268;50.792;0.252;2022-09-09T11:37:31;3.33;;;0.40;;
14369;SDS011;7268;50.792;0.252;2022-09-09T11:42:40;1.48;;;0.43;;
14369;SDS011;7268;50.792;0.252;2022-09-09T11:45:09;5.25;;;0.40;;
14369;SDS011;7268;50.792;0.252;2022-09-09T11:47:37;1.83;;;0.30;;
14369;SDS011;7268;50.792;0.252;2022-09-09T11:52:39;2.47;;;0.50;;
14369;SDS011;7268;50.792;0.252;2022-09-09T11:55:31;2.97;;;0.45;;
14369;SDS011;7268;50.792;0.252;2022-09-09T11:58:05;4.07;;;0.43;;
14369;SDS011;7268;50.792;0.252;2022-09-09T12:00:42;2.45;;;0.40;;
14369;SDS011;7268;50.792;0.252;2022-09-09T12:06:25;5.88;;;0.55;;
14369;SDS011;7268;50.792;0.252;2022-09-09T12:08:56;4.47;;;0.50;;
14369;SDS011;7268;50.792;0.252;2022-09-09T12:11:27;4.07;;;0.50;;
14369;SDS011;7268;50.792;0.252;2022-09-09T12:13:55;3.05;;;0.50;;
14369;SDS011;7268;50.792;0.252;2022-09-09T12:16:36;4.28;;;0.50;;
14369;SDS011;7268;50.792;0.252;2022-09-09T12:19:05;4.20;;;0.45;;
14369;SDS011;7268;50.792;0.252;2022-09-09T12:21:45;2.00;;;0.30;;
14369;SDS011;7268;50.792;0.252;2022-09-09T12:24:17;1.35;;;0.30;;
14369;SDS011;7268;50.792;0.252;2022-09-09T12:26:52;5.30;;;0.70;;
14369;SDS011;7268;50.792;0.252;2022-09-09T12:29:27;13.70;;;4.00;;
14369;SDS011;7268;50.792;0.252;2022-09-09T12:32:13;3.58;;;0.40;;
14369;SDS011;7268;50.792;0.252;2022-09-09T12:34:48;2.08;;;0.30;;
14369;SDS011;7268;50.792;0.252;2022-09-09T12:37:31;2.38;;;0.47;;
14369;SDS011;7268;50.792;0.252;2022-09-09T12:40:00;2.45;;;0.55;;
14369;SDS011;7268;50.792;0.252;2022-09-09T12:42:29;2.65;;;0.40;;
14369;SDS011;7268;50.792;0.252;2022-09-09T12:47:36;6.40;;;0.40;;
14369;SDS011;7268;50.792;0.252;2022-09-09T12:51:16;2.53;;;0.40;;
14369;SDS011;7268;50.792;0.252;2022-09-09T12:53:22;5.80;;;0.40;;
14369;SDS011;7268;50.792;0.252;2022-09-09T12:56:38;4.70;;;0.30;;
14369;SDS011;7268;50.792;0.252;2022-09-09T12:58:44;2.72;;;0.30;;
14369;SDS011;7268;50.792;0.252;2022-09-09T13:03:49;6.20;;;0.43;;
14369;SDS011;7268;50.792;0.252;2022-09-09T13:06:24;2.10;;;0.50;;
14369;SDS011;7268;50.792;0.252;2022-09-09T13:08:55;7.50;;;0.50;;
14369;SDS011;7268;50.792;0.252;2022-09-09T13:11:24;6.13;;;0.50;;
14369;SDS011;7268;50.792;0.252;2022-09-09T13:13:53;5.78;;;0.43;;
14369;SDS011;7268;50.792;0.252;2022-09-09T13:16:28;4.85;;;0.50;;
14369;SDS011;7268;50.792;0.252;2022-09-09T13:18:59;1.77;;;0.50;;
14369;SDS011;7268;50.792;0.252;2022-09-09T13:21:36;4.20;;;0.50;;
14369;SDS011;7268;50.792;0.252;2022-09-09T13:24:05;3.20;;;0.43;;
14369;SDS011;7268;50.792;0.252;2022-09-09T13:26:34;5.68;;;0.50;;
14369;SDS011;7268;50.792;0.252;2022-09-09T13:29:09;2.63;;;0.50;;
14369;SDS011;7268;50.792;0.252;2022-09-09T13:31:44;1.35;;;0.40;;
14369;SDS011;7268;50.792;0.252;2022-09-09T13:34:12;3.28;;;0.50;;
14369;SDS011;7268;50.792;0.252;2022-09-09T13:36:40;2.92;;;0.40;;
14369;SDS011;7268;50.792;0.252;2022-09-09T13:39:15;7.82;;;0.60;;
14369;SDS011;7268;50.792;0.252;2022-09-09T13:41:44;7.70;;;0.57;;
14369;SDS011;7268;50.792;0.252;2022-09-09T13:44:19;6.97;;;0.60;;
14369;SDS011;7268;50.792;0.252;2022-09-09T13:47:05;4.32;;;0.38;;
14369;SDS011;7268;50.792;0.252;2022-09-09T13:49:36;4.93;;;0.70;;
14369;SDS011;7268;50.792;0.252;2022-09-09T13:52:04;4.03;;;0.50;;
14369;SDS011;7268;50.792;0.252;2022-09-09T13:54:34;5.65;;;0.43;;
14369;SDS011;7268;50.792;0.252;2022-09-09T13:57:02;3.13;;;0.35;;
14369;SDS011;7268;50.792;0.252;2022-09-09T13:59:30;2.60;;;0.40;;
14369;SDS011;7268;50.792;0.252;2022-09-09T14:02:17;2.83;;;0.20;;
14369;SDS011;7268;50.792;0.252;2022-09-09T14:04:45;2.67;;;0.75;;
14369;SDS011;7268;50.792;0.252;2022-09-09T14:07:13;3.55;;;0.50;;
14369;SDS011;7268;50.792;0.252;2022-09-09T14:09:41;1.83;;;0.30;;
14369;SDS011;7268;50.792;0.252;2022-09-09T14:12:12;2.95;;;0.32;;
14369;SDS011;7268;50.792;0.252;2022-09-09T14:14:41;1.52;;;0.30;;
14369;SDS011;7268;50.792;0.252;2022-09-09T14:17:08;2.55;;;0.30;;
14369;SDS011;7268;50.792;0.252;2022-09-09T14:19:36;6.40;;;0.63;;
14369;SDS011;7268;50.792;0.252;2022-09-09T14:22:03;5.00;;;0.50;;
14369;SDS011;7268;50.792;0.252;2022-09-09T14:24:30;5.00;;;0.57;;
14369;SDS011;7268;50.792;0.252;2022-09-09T14:26:58;2.58;;;0.38;;
14369;SDS011;7268;50.792;0.252;2022-09-09T14:29:25;5.82;;;0.50;;
14369;SDS011;7268;50.792;0.252;2022-09-09T14:31:52;3.08;;;0.52;;
14369;SDS011;7268;50.792;0.252;2022-09-09T14:34:20;4.88;;;0.50;;
14369;SDS011;7268;50.792;0.252;2022-09-09T14:36:47;1.50;;;0.45;;
14369;SDS011;7268;50.792;0.252;2022-09-09T14:39:14;4.80;;;0.60;;
14369;SDS011;7268;50.792;0.252;2022-09-09T14:41:41;7.57;;;0.50;;
14369;SDS011;7268;50.792;0.252;2022-09-09T14:44:09;1.33;;;0.43;;
14369;SDS011;7268;50.792;0.252;2022-09-09T14:46:36;5.45;;;0.50;;
14369;SDS011;7268;50.792;0.252;2022-09-09T14:49:03;2.72;;;0.30;;
14369;SDS011;7268;50.792;0.252;2022-09-09T14:51:31;1.38;;;0.30;;
14369;SDS011;7268;50.792;0.252;2022-09-09T14:53:58;1.65;;;0.40;;
14369;SDS011;7268;50.792;0.252;2022-09-09T14:56:29;5.25;;;0.70;;
14369;SDS011;7268;50.792;0.252;2022-09-09T14:58:57;0.40;;;0.35;;
14369;SDS011;7268;50.792;0.252;2022-09-09T15:01:27;1.50;;;0.40;;
14369;SDS011;7268;50.792;0.252;2022-09-09T15:04:01;5.95;;;0.50;;
14369;SDS011;7268;50.792;0.252;2022-09-09T15:06:30;1.23;;;0.43;;
14369;SDS011;7268;50.792;0.252;2022-09-09T15:08:59;2.38;;;0.30;;
14369;SDS011;7268;50.792;0.252;2022-09-09T15:11:27;3.40;;;0.40;;
14369;SDS011;7268;50.792;0.252;2022-09-09T15:13:56;4.30;;;0.32;;
14369;SDS011;7268;50.792;0.252;2022-09-09T15:16:25;3.47;;;0.40;;
14369;SDS011;7268;50.792;0.252;2022-09-09T15:18:55;1.52;;;0.30;;
14369;SDS011;7268;50.792;0.252;2022-09-09T15:21:23;5.10;;;0.40;;
14369;SDS011;7268;50.792;0.252;2022-09-09T15:23:51;3.35;;;0.50;;
14369;SDS011;7268;50.792;0.252;2022-09-09T15:26:18;4.03;;;0.40;;
14369;SDS011;7268;50.792;0.252;2022-09-09T15:28:47;4.65;;;0.50;;
14369;SDS011;7268;50.792;0.252;2022-09-09T15:31:17;1.52;;;0.50;;
14369;SDS011;7268;50.792;0.252;2022-09-09T15:33:48;1.90;;;0.60;;
14369;SDS011;7268;50.792;0.252;2022-09-09T15:36:22;3.30;;;0.43;;
14369;SDS011;7268;50.792;0.252;2022-09-09T15:38:50;4.57;;;0.40;;
14369;SDS011;7268;50.792;0.252;2022-09-09T15:41:18;1.98;;;0.45;;
14369;SDS011;7268;50.792;0.252;2022-09-09T15:43:46;4.07;;;0.52;;
14369;SDS011;7268;50.792;0.252;2022-09-09T15:48:50;2.60;;;0.45;;
14369;SDS011;7268;50.792;0.252;2022-09-09T15:51:20;1.52;;;0.40;;
14369;SDS011;7268;50.792;0.252;2022-09-09T15:54:08;3.28;;;0.80;;
14369;SDS011;7268;50.792;0.252;2022-09-09T15:56:35;1.80;;;0.60;;
14369;SDS011;7268;50.792;0.252;2022-09-09T15:59:03;2.10;;;0.43;;
14369;SDS011;7268;50.792;0.252;2022-09-09T16:01:31;4.10;;;0.30;;
14369;SDS011;7268;50.792;0.252;2022-09-09T16:03:58;3.80;;;0.50;;
14369;SDS011;7268;50.792;0.252;2022-09-09T16:06:26;5.88;;;0.40;;
14369;SDS011;7268;50.792;0.252;2022-09-09T16:08:55;1.52;;;0.60;;
14369;SDS011;7268;50.792;0.252;2022-09-09T16:11:26;2.85;;;0.40;;
14369;SDS011;7268;50.792;0.252;2022-09-09T16:13:54;1.13;;;0.30;;
14369;SDS011;7268;50.792;0.252;2022-09-09T16:16:26;3.40;;;0.30;;
14369;SDS011;7268;50.792;0.252;2022-09-09T16:18:54;4.38;;;0.40;;
14369;SDS011;7268;50.792;0.252;2022-09-09T16:21:23;1.60;;;0.43;;
14369;SDS011;7268;50.792;0.252;2022-09-09T16:23:51;1.83;;;0.40;;
14369;SDS011;7268;50.792;0.252;2022-09-09T16:26:19;2.25;;;0.45;;
14369;SDS011;7268;50.792;0.252;2022-09-09T16:28:47;5.93;;;0.55;;
14369;SDS011;7268;50.792;0.252;2022-09-09T16:31:21;5.63;;;0.47;;
14369;SDS011;7268;50.792;0.252;2022-09-09T16:33:49;4.57;;;0.60;;
14369;SDS011;7268;50.792;0.252;2022-09-09T16:36:24;5.63;;;0.57;;
14369;SDS011;7268;50.792;0.252;2022-09-09T16:38:52;4.95;;;0.63;;
14369;SDS011;7268;50.792;0.252;2022-09-09T16:41:21;3.97;;;0.60;;
14369;SDS011;7268;50.792;0.252;2022-09-09T16:43:52;5.53;;;0.50;;
14369;SDS011;7268;50.792;0.252;2022-09-09T16:46:20;4.20;;;0.60;;
14369;SDS011;7268;50.792;0.252;2022-09-09T16:48:48;3.92;;;0.70;;
14369;SDS011;7268;50.792;0.252;2022-09-09T16:53:42;6.97;;;0.60;;
14369;SDS011;7268;50.792;0.252;2022-09-09T16:56:14;5.18;;;0.40;;
14369;SDS011;7268;50.792;0.252;2022-09-09T16:58:42;5.75;;;0.70;;
14369;SDS011;7268;50.792;0.252;2022-09-09T17:01:11;4.32;;;0.52;;
14369;SDS011;7268;50.792;0.252;2022-09-09T17:03:40;6.43;;;0.65;;
14369;SDS011;7268;50.792;0.252;2022-09-09T17:06:11;4.57;;;0.35;;
14369;SDS011;7268;50.792;0.252;2022-09-09T17:08:39;4.88;;;0.50;;
14369;SDS011;7268;50.792;0.252;2022-09-09T17:11:17;3.90;;;0.70;;
14369;SDS011;7268;50.792;0.252;2022-09-09T17:13:47;3.17;;;0.60;;
14369;SDS011;7268;50.792;0.252;2022-09-09T17:16:15;3.70;;;0.52;;
14369;SDS011;7268;50.792;0.252;2022-09-09T17:18:43;5.82;;;0.80;;
14369;SDS011;7268;50.792;0.252;2022-09-09T17:21:12;4.78;;;1.13;;
14369;SDS011;7268;50.792;0.252;2022-09-09T17:23:40;11.40;;;0.70;;
14369;SDS011;7268;50.792;0.252;2022-09-09T17:26:09;8.85;;;1.00;;